Time;durP1;ratioP1;P1;durP2;ratioP2;P2;SDS_P1;SDS_P2;PMS_P1;PMS_P2;Temp;Humidity;BMP_temperature;BMP_pressure;BME280_temperature;BME280_humidity;BME280_pressure;Samples;Min_cycle;Max_cycle;Signal;HPM_P1;HPM_P2
2021/11/13 00:02:17;;;;;;;14.07;10.73;;;12.80;84.00;;;;;;4976687;28;20027;-75
2021/11/13 00:04:43;;;;;;;14.93;10.55;;;12.70;84.00;;;;;;4959470;28;20062;-77
2021/11/13 00:07:08;;;;;;;14.15;10.73;;;12.70;84.10;;;;;;4959082;28;20515;-75
2021/11/13 00:09:34;;;;;;;15.30;10.02;;;12.70;84.10;;;;;;4976670;28;20484;-75
2021/11/13 00:11:59;;;;;;;13.77;10.10;;;12.80;84.30;;;;;;4959276;28;20034;-76
2021/11/13 00:14:27;;;;;;;13.15;9.65;;;12.80;84.30;;;;;;4959278;28;20031;-75
2021/11/13 00:16:55;;;;;;;14.82;10.10;;;12.70;84.20;;;;;;4991209;28;20023;-75
2021/11/13 00:19:20;;;;;;;13.52;9.63;;;12.70;84.40;;;;;;4959350;28;20031;-75
2021/11/13 00:21:46;;;;;;;15.30;10.38;;;12.80;84.50;;;;;;4976293;28;20442;-75
2021/11/13 00:24:12;;;;;;;13.43;9.88;;;12.80;84.60;;;;;;4959026;28;20030;-75
2021/11/13 00:26:38;;;;;;;13.90;10.25;;;12.70;84.50;;;;;;4976092;28;20067;-76
2021/11/13 00:29:05;;;;;;;14.18;10.40;;;12.70;84.60;;;;;;4958973;28;20049;-76
2021/11/13 00:31:31;;;;;;;13.65;10.05;;;12.70;84.60;;;;;;4958979;28;20022;-76
2021/11/13 00:33:57;;;;;;;13.90;10.05;;;12.70;84.50;;;;;;4976191;28;20029;-75
2021/11/13 00:36:24;;;;;;;13.25;9.70;;;12.70;84.50;;;;;;4975740;28;20113;-75
2021/11/13 00:38:50;;;;;;;13.50;10.40;;;12.70;84.50;;;;;;4958598;28;20034;-75
2021/11/13 00:41:15;;;;;;;13.70;10.35;;;12.80;84.60;;;;;;4958674;28;20432;-75
2021/11/13 00:43:41;;;;;;;14.18;10.07;;;12.70;84.50;;;;;;4958769;28;20070;-75
2021/11/13 00:46:06;;;;;;;14.82;10.63;;;12.70;84.60;;;;;;4958300;28;20120;-75
2021/11/13 00:48:32;;;;;;;15.38;11.35;;;12.70;84.70;;;;;;4958629;28;20529;-75
2021/11/13 00:50:58;;;;;;;15.00;10.50;;;12.80;84.90;;;;;;4958578;28;20046;-75
2021/11/13 00:53:23;;;;;;;15.63;10.98;;;12.80;84.90;;;;;;4975784;28;20031;-75
2021/11/13 00:55:49;;;;;;;14.70;10.45;;;12.80;84.90;;;;;;4975517;28;20097;-75
2021/11/13 00:58:14;;;;;;;13.68;10.43;;;12.80;85.00;;;;;;4975730;28;20034;-75
2021/11/13 01:00:40;;;;;;;15.43;10.80;;;12.70;85.00;;;;;;4958389;28;20027;-75
2021/11/13 01:03:07;;;;;;;15.23;10.57;;;12.80;85.00;;;;;;4958148;28;20395;-75
2021/11/13 01:05:33;;;;;;;13.82;10.52;;;12.80;84.70;;;;;;4958092;28;20023;-75
2021/11/13 01:07:59;;;;;;;13.35;9.98;;;12.80;84.60;;;;;;4975576;28;20038;-76
2021/11/13 01:10:24;;;;;;;14.30;10.35;;;12.80;84.40;;;;;;4975581;28;20484;-75
2021/11/13 01:12:50;;;;;;;15.82;10.52;;;12.80;84.30;;;;;;4975495;28;20023;-75
2021/11/13 01:15:18;;;;;;;14.07;10.07;;;12.80;84.20;;;;;;4958255;28;20069;-77
2021/11/13 01:17:43;;;;;;;14.13;10.43;;;12.90;84.20;;;;;;4958099;28;20038;-76
2021/11/13 01:20:12;;;;;;;14.07;10.02;;;12.90;84.20;;;;;;4957944;28;20023;-76
2021/11/13 01:22:38;;;;;;;14.88;10.52;;;12.90;84.20;;;;;;4957887;28;20065;-76
2021/11/13 01:25:05;;;;;;;14.05;9.45;;;12.90;84.10;;;;;;4957809;28;20054;-76
2021/11/13 01:27:31;;;;;;;14.57;10.25;;;12.90;84.10;;;;;;4957742;28;20583;-76
2021/11/13 01:29:56;;;;;;;13.32;9.95;;;12.90;84.10;;;;;;4957931;28;20058;-76
2021/11/13 01:32:22;;;;;;;13.93;9.90;;;12.90;84.10;;;;;;4975109;28;20061;-76
2021/11/13 01:34:48;;;;;;;13.52;9.82;;;12.90;84.10;;;;;;4957700;28;20038;-76
2021/11/13 01:37:13;;;;;;;13.18;9.63;;;12.90;84.10;;;;;;4957378;28;20023;-75
2021/11/13 01:39:39;;;;;;;14.45;9.85;;;12.90;84.10;;;;;;4974971;28;20540;-76
2021/11/13 01:42:06;;;;;;;13.88;9.40;;;12.80;84.10;;;;;;4957720;28;20037;-75
2021/11/13 01:44:32;;;;;;;12.68;9.07;;;12.90;84.30;;;;;;4957625;28;20058;-76
2021/11/13 01:46:58;;;;;;;12.82;9.18;;;12.90;84.50;;;;;;4990149;28;20023;-75
2021/11/13 01:49:24;;;;;;;13.23;9.10;;;12.80;84.90;;;;;;4957819;28;20113;-76
2021/11/13 01:51:49;;;;;;;12.85;8.90;;;12.80;85.00;;;;;;4957416;28;20507;-76
2021/11/13 01:54:17;;;;;;;13.32;8.77;;;12.80;85.20;;;;;;4957443;28;20507;-76
2021/11/13 01:56:42;;;;;;;13.55;9.23;;;12.80;85.20;;;;;;4989376;28;20097;-77
2021/11/13 01:59:09;;;;;;;13.07;9.07;;;12.70;85.20;;;;;;4974110;28;20110;-76
2021/11/13 02:01:35;;;;;;;12.75;9.32;;;12.70;85.30;;;;;;4957200;28;20041;-75
2021/11/13 02:04:01;;;;;;;13.50;9.20;;;12.70;85.30;;;;;;4957262;28;20033;-76
2021/11/13 02:06:27;;;;;;;12.02;9.05;;;12.70;85.30;;;;;;4988942;28;20504;-76
2021/11/13 02:08:52;;;;;;;12.93;8.70;;;12.70;85.30;;;;;;4957153;28;20077;-75
2021/11/13 02:11:22;;;;;;;12.18;8.73;;;12.70;85.20;;;;;;4974493;28;20028;-76
2021/11/13 02:13:48;;;;;;;12.35;8.82;;;12.70;85.20;;;;;;4973668;28;20019;-75
2021/11/13 02:16:13;;;;;;;11.98;8.55;;;12.70;85.10;;;;;;4988993;28;20476;-76
2021/11/13 02:18:40;;;;;;;11.55;8.10;;;12.70;85.10;;;;;;4974170;28;20019;-76
2021/11/13 02:21:08;;;;;;;10.10;7.43;;;12.70;85.00;;;;;;4956979;28;20022;-76
2021/11/13 02:23:34;;;;;;;12.90;8.07;;;12.70;85.10;;;;;;4956981;28;20404;-76
2021/11/13 02:26:00;;;;;;;12.27;7.97;;;12.70;85.00;;;;;;4973939;28;20045;-75
2021/11/13 02:28:27;;;;;;;12.13;8.23;;;12.70;84.90;;;;;;4956742;28;20037;-75
2021/11/13 02:30:55;;;;;;;11.82;8.60;;;12.70;84.90;;;;;;4956705;28;20019;-76
2021/11/13 02:33:21;;;;;;;11.20;8.23;;;12.70;85.00;;;;;;4956619;28;20121;-75
2021/11/13 02:35:50;;;;;;;10.90;7.55;;;12.70;85.00;;;;;;4973803;28;20054;-76
2021/11/13 02:38:29;;;;;;;12.30;8.00;;;12.70;85.10;;;;;;4956710;28;20026;-75
2021/11/13 02:40:57;;;;;;;11.23;7.60;;;12.70;85.10;;;;;;4974060;28;20042;-76
2021/11/13 02:43:28;;;;;;;10.48;7.28;;;12.70;85.20;;;;;;4974019;28;20059;-76
2021/11/13 02:45:56;;;;;;;12.93;8.43;;;12.70;85.20;;;;;;4956356;28;20026;-76
2021/11/13 02:48:23;;;;;;;9.68;7.10;;;12.70;85.30;;;;;;4973573;28;20049;-75
2021/11/13 02:50:49;;;;;;;10.05;7.13;;;12.70;85.30;;;;;;4956611;28;20384;-76
2021/11/13 02:53:18;;;;;;;11.38;7.68;;;12.70;85.40;;;;;;4956587;28;20081;-75
2021/11/13 02:55:44;;;;;;;10.15;7.43;;;12.70;85.40;;;;;;4956233;28;20699;-75
2021/11/13 02:58:10;;;;;;;11.02;7.45;;;12.70;85.40;;;;;;4955821;28;20510;-75
2021/11/13 03:00:36;;;;;;;9.48;7.05;;;12.70;85.30;;;;;;4956465;28;20093;-75
2021/11/13 03:03:02;;;;;;;10.55;7.05;;;12.70;85.30;;;;;;4973617;28;20034;-74
2021/11/13 03:05:34;;;;;;;9.88;7.03;;;12.70;85.10;;;;;;4988421;28;20034;-75
2021/11/13 03:08:05;;;;;;;9.40;6.90;;;12.70;85.10;;;;;;4956436;28;20019;-76
2021/11/13 03:10:34;;;;;;;11.40;7.85;;;12.70;85.00;;;;;;4956458;28;20022;-75
2021/11/13 03:13:00;;;;;;;12.00;7.32;;;12.70;85.00;;;;;;4956421;28;20095;-75
2021/11/13 03:15:26;;;;;;;11.02;7.07;;;12.70;85.00;;;;;;4956008;28;20027;-76
2021/11/13 03:17:54;;;;;;;10.90;7.32;;;12.70;85.00;;;;;;4956211;28;20053;-75
2021/11/13 03:20:23;;;;;;;9.77;6.95;;;12.70;85.10;;;;;;4966188;28;20031;-75
2021/11/13 03:22:49;;;;;;;9.68;6.65;;;12.70;85.10;;;;;;4954821;28;20110;-75
2021/11/13 03:25:19;;;;;;;10.80;6.82;;;12.70;85.10;;;;;;4957780;28;20026;-75
2021/11/13 03:27:48;;;;;;;9.85;7.05;;;12.70;85.00;;;;;;4959918;28;20065;-76
2021/11/13 03:30:14;;;;;;;9.02;6.40;;;12.70;85.00;;;;;;4960121;28;20441;-76
2021/11/13 03:32:39;;;;;;;10.07;7.00;;;12.70;85.10;;;;;;4977285;28;20027;-76
2021/11/13 03:35:07;;;;;;;10.02;6.82;;;12.70;84.90;;;;;;4977164;28;20026;-74
2021/11/13 03:37:33;;;;;;;9.50;6.47;;;12.70;85.00;;;;;;4976948;28;20031;-75
2021/11/13 03:40:00;;;;;;;9.45;6.22;;;12.70;84.90;;;;;;4959865;28;20066;-76
2021/11/13 03:42:29;;;;;;;9.40;6.57;;;12.70;84.90;;;;;;4977091;28;20127;-75
2021/11/13 03:44:56;;;;;;;9.57;6.70;;;12.70;84.80;;;;;;4959774;28;20023;-75
2021/11/13 03:47:22;;;;;;;10.07;6.97;;;12.70;84.70;;;;;;4959360;28;20033;-75
2021/11/13 03:49:47;;;;;;;10.32;6.70;;;12.70;84.80;;;;;;4976947;28;20027;-76
2021/11/13 03:52:13;;;;;;;9.75;6.40;;;12.70;84.60;;;;;;4959548;28;20054;-76
2021/11/13 03:54:38;;;;;;;10.05;6.78;;;12.70;84.60;;;;;;4959611;28;20027;-75
2021/11/13 03:57:05;;;;;;;8.88;6.07;;;12.70;84.60;;;;;;4959362;28;20027;-75
2021/11/13 03:59:30;;;;;;;9.25;6.57;;;12.70;84.50;;;;;;4958854;28;20023;-75
2021/11/13 04:01:56;;;;;;;11.02;7.07;;;12.70;84.40;;;;;;4976673;28;20046;-75
2021/11/13 04:04:22;;;;;;;11.15;6.68;;;12.70;84.50;;;;;;4959411;28;20047;-76
2021/11/13 04:06:47;;;;;;;9.85;6.28;;;12.70;84.50;;;;;;4959092;28;20119;-76
2021/11/13 04:09:13;;;;;;;11.10;6.65;;;12.70;84.40;;;;;;4959376;28;20023;-75
2021/11/13 04:11:39;;;;;;;10.43;6.30;;;12.70;84.50;;;;;;4976695;28;20041;-75
2021/11/13 04:14:04;;;;;;;9.85;6.75;;;12.70;84.50;;;;;;4976545;28;20027;-75
2021/11/13 04:16:30;;;;;;;9.93;6.78;;;12.70;84.40;;;;;;4976074;28;20015;-75
2021/11/13 04:18:55;;;;;;;10.27;6.63;;;12.70;84.60;;;;;;4959178;28;20026;-75
2021/11/13 04:21:21;;;;;;;10.07;7.07;;;12.70;84.50;;;;;;4976394;28;20026;-75
2021/11/13 04:23:47;;;;;;;10.43;6.63;;;12.70;84.30;;;;;;4958849;28;20030;-75
2021/11/13 04:26:13;;;;;;;9.57;6.55;;;12.80;84.40;;;;;;4976064;28;20078;-75
2021/11/13 04:28:38;;;;;;;9.50;6.35;;;12.80;84.30;;;;;;4976136;28;20031;-75
2021/11/13 04:31:04;;;;;;;10.25;6.95;;;12.80;84.20;;;;;;4976258;28;20469;-76
2021/11/13 04:33:31;;;;;;;10.75;6.72;;;12.80;84.30;;;;;;4958892;28;20090;-75
2021/11/13 04:36:14;;;;;;;9.70;6.43;;;12.80;84.20;;;;;;4958063;28;20412;-75
2021/11/13 04:38:41;;;;;;;9.10;6.32;;;12.80;84.10;;;;;;4958683;28;20023;-75
2021/11/13 04:41:07;;;;;;;9.75;6.63;;;12.80;84.10;;;;;;4958810;28;20062;-75
2021/11/13 04:43:33;;;;;;;10.93;6.68;;;12.80;84.00;;;;;;4958656;28;20027;-75
2021/11/13 04:45:58;;;;;;;9.13;5.72;;;12.80;84.00;;;;;;4975663;28;20677;-75
2021/11/13 04:48:24;;;;;;;9.55;6.32;;;12.80;84.00;;;;;;5021199;22;20049;-81
2021/11/13 04:50:49;;;;;;;9.82;6.55;;;12.80;84.00;;;;;;4997560;28;20479;-81
2021/11/13 04:53:15;;;;;;;9.77;6.50;;;12.80;84.00;;;;;;5014911;28;20033;-81
2021/11/13 04:55:40;;;;;;;9.55;6.30;;;12.80;84.00;;;;;;4997352;28;20488;-78
2021/11/13 04:58:07;;;;;;;8.63;6.10;;;12.80;84.10;;;;;;4996823;28;20022;-80
2021/11/13 05:00:34;;;;;;;8.90;6.38;;;12.80;84.30;;;;;;5014717;28;20041;-81
2021/11/13 05:03:01;;;;;;;9.27;6.28;;;12.80;84.60;;;;;;5014618;28;20558;-81
2021/11/13 05:05:28;;;;;;;9.45;6.70;;;12.70;84.70;;;;;;4997112;28;20034;-80
2021/11/13 05:07:54;;;;;;;9.98;6.93;;;12.70;84.90;;;;;;4997097;28;20022;-81
2021/11/13 05:10:20;;;;;;;10.20;6.50;;;12.70;85.10;;;;;;4997153;28;20026;-81
2021/11/13 05:12:47;;;;;;;9.52;6.88;;;12.70;85.40;;;;;;4997126;28;20037;-80
2021/11/13 05:15:12;;;;;;;9.02;6.30;;;12.70;85.50;;;;;;4996864;28;20053;-81
2021/11/13 05:17:39;;;;;;;9.15;6.25;;;12.70;85.40;;;;;;4997010;28;20058;-81
2021/11/13 05:20:08;;;;;;;11.15;6.68;;;12.70;86.20;;;;;;4994851;28;20026;-80
2021/11/13 05:22:34;;;;;;;8.45;6.13;;;12.70;85.60;;;;;;4977523;28;20061;-80
2021/11/13 05:25:00;;;;;;;9.57;6.18;;;12.60;85.70;;;;;;4977257;28;20425;-80
2021/11/13 05:27:26;;;;;;;9.18;6.30;;;12.60;85.70;;;;;;4977217;28;20027;-81
2021/11/13 05:29:51;;;;;;;9.55;6.43;;;12.60;85.80;;;;;;4977326;28;20031;-81
2021/11/13 05:32:17;;;;;;;9.20;6.38;;;12.60;85.80;;;;;;4977304;28;20596;-79
2021/11/13 05:34:42;;;;;;;10.75;6.88;;;12.60;85.90;;;;;;5001584;28;20507;-81
2021/11/13 05:37:08;;;;;;;10.20;6.50;;;12.60;86.00;;;;;;5013620;28;20065;-81
2021/11/13 05:39:36;;;;;;;10.35;6.80;;;12.70;86.00;;;;;;4996569;28;20128;-81
2021/11/13 05:42:03;;;;;;;11.60;6.97;;;12.60;86.00;;;;;;4996408;28;20025;-81
2021/11/13 05:44:28;;;;;;;10.52;6.72;;;12.60;86.00;;;;;;4996548;28;20535;-81
2021/11/13 05:46:54;;;;;;;10.32;6.72;;;12.60;86.00;;;;;;5013799;28;20022;-81
2021/11/13 05:49:21;;;;;;;10.18;6.30;;;12.60;86.10;;;;;;4995339;28;20458;-81
2021/11/13 05:51:46;;;;;;;9.90;6.38;;;12.60;86.10;;;;;;4996351;28;20117;-81
2021/11/13 05:54:12;;;;;;;9.27;6.22;;;12.60;86.10;;;;;;5013762;28;20100;-81
2021/11/13 05:56:37;;;;;;;9.50;6.13;;;12.60;86.20;;;;;;4996113;28;20029;-81
2021/11/13 05:59:03;;;;;;;9.70;6.50;;;12.60;86.30;;;;;;4995708;28;20021;-81
2021/11/13 06:01:29;;;;;;;10.00;6.60;;;12.60;86.20;;;;;;4996117;28;20405;-81
2021/11/13 06:03:55;;;;;;;9.95;6.22;;;12.70;86.30;;;;;;5013640;28;20065;-81
2021/11/13 06:06:20;;;;;;;9.60;6.10;;;12.60;86.40;;;;;;4996027;28;20029;-79
2021/11/13 06:08:46;;;;;;;10.10;6.80;;;12.60;86.40;;;;;;4996040;28;20072;-80
2021/11/13 06:11:11;;;;;;;9.80;6.72;;;12.60;86.40;;;;;;4995940;28;20128;-81
2021/11/13 06:13:37;;;;;;;9.55;6.60;;;12.60;86.30;;;;;;4995916;28;20030;-80
2021/11/13 06:16:03;;;;;;;9.25;6.28;;;12.60;86.30;;;;;;4995692;28;20091;-81
2021/11/13 06:18:33;;;;;;;9.27;5.88;;;12.60;86.40;;;;;;4995905;28;20026;-81
2021/11/13 06:20:58;;;;;;;8.75;6.07;;;12.60;86.40;;;;;;4995789;28;20561;-80
2021/11/13 06:23:24;;;;;;;10.05;6.47;;;12.60;86.40;;;;;;4995615;28;20065;-80
2021/11/13 06:25:50;;;;;;;11.23;6.50;;;12.60;86.30;;;;;;5013261;28;20368;-80
2021/11/13 06:28:15;;;;;;;10.68;6.65;;;12.60;86.30;;;;;;5013091;28;20080;-81
2021/11/13 06:30:41;;;;;;;10.20;6.07;;;12.70;86.30;;;;;;4995629;28;20025;-80
2021/11/13 06:33:06;;;;;;;8.43;5.85;;;12.60;86.30;;;;;;4995682;28;20037;-80
2021/11/13 06:35:32;;;;;;;10.43;6.82;;;12.60;86.40;;;;;;5013170;28;20025;-80
2021/11/13 06:37:57;;;;;;;9.82;6.65;;;12.60;86.40;;;;;;4995464;28;20113;-80
2021/11/13 06:40:24;;;;;;;12.40;5.93;;;12.60;86.40;;;;;;4995911;28;20026;-79
2021/11/13 06:42:49;;;;;;;10.55;6.47;;;12.60;86.50;;;;;;4996261;28;20034;-81
2021/11/13 06:45:15;;;;;;;11.65;6.28;;;12.60;86.40;;;;;;4997687;28;20665;-83
2021/11/13 08:31:55;;;;;;;11.90;6.90;;;12.70;84.50;;;;;;4882058;29;20040;-83
2021/11/13 09:33:38;;;;;;;9.13;6.07;;;12.70;85.30;;;;;;5018551;28;20056;-85
2021/11/13 09:36:20;;;;;;;9.38;6.50;;;12.70;85.30;;;;;;4997803;28;20042;-85
2021/11/13 09:38:57;;;;;;;9.25;6.00;;;12.70;85.20;;;;;;4998889;28;20526;-82
2021/11/13 09:41:23;;;;;;;9.80;5.88;;;12.70;85.30;;;;;;4997047;28;20091;-83
2021/11/13 09:53:40;;;;;;;13.48;6.47;;;12.70;85.90;;;;;;5017809;28;20044;-83
2021/11/13 09:56:10;;;;;;;11.38;6.95;;;12.70;86.20;;;;;;4997150;28;20046;-80
2021/11/13 10:02:33;;;;;;;12.30;8.13;;;12.60;86.50;;;;;;4955733;29;20038;-83
2021/11/13 10:24:40;;;;;;;;;;;;;;;;;;;;;
2021/11/13 10:34:36;;;;;;;10.30;7.47;;;12.60;86.70;;;;;;4955177;28;20051;-85
2021/11/13 10:37:31;;;;;;;10.32;7.80;;;12.60;86.60;;;;;;4841709;29;20057;-82
2021/11/13 10:49:28;;;;;;;22.10;8.50;;;12.60;85.40;;;;;;5047892;22;20112;-84
2021/11/13 10:51:56;;;;;;;15.85;8.20;;;12.60;85.30;;;;;;4997157;28;20096;-85
2021/11/13 10:54:23;;;;;;;13.75;7.68;;;12.60;85.70;;;;;;4996764;28;20068;-83
2021/11/13 10:56:55;;;;;;;17.27;9.32;;;12.60;85.70;;;;;;4996810;28;20022;-84
2021/11/13 10:59:42;;;;;;;77.68;11.55;;;12.60;85.70;;;;;;4996855;28;20060;-84
2021/11/13 11:02:15;;;;;;;30.77;8.50;;;12.70;87.40;;;;;;4996435;28;20034;-81
2021/11/13 11:04:44;;;;;;;26.33;10.18;;;12.80;85.80;;;;;;4996348;28;20046;-87
2021/11/13 11:07:12;;;;;;;24.13;9.07;;;12.80;85.40;;;;;;4996377;28;20033;-86
2021/11/13 11:10:02;;;;;;;36.03;11.65;;;12.90;85.90;;;;;;4995247;28;20153;-87
2021/11/13 11:12:33;;;;;;;66.47;16.08;;;12.90;86.40;;;;;;4995584;28;20065;-85
2021/11/13 11:19:13;;;;;;;99.07;18.98;;;12.90;86.20;;;;;;4971695;28;20128;-86
2021/11/13 11:22:16;;;;;;;124.07;21.00;;;12.90;86.10;;;;;;4885327;28;20045;-86
2021/11/13 11:25:26;;;;;;;150.10;24.70;;;13.00;86.10;;;;;;4993720;28;20030;-83
2021/11/13 11:27:52;;;;;;;;;;;13.00;86.20;;;;;;4996184;28;20409;-83
2021/11/13 11:30:20;;;;;;;173.30;26.48;;;13.10;86.00;;;;;;4996721;28;19948;-84
2021/11/13 11:33:12;;;;;;;149.70;25.20;;;13.10;86.20;;;;;;4996233;28;20092;-85
2021/11/13 11:35:50;;;;;;;147.60;25.25;;;13.10;86.60;;;;;;4988491;28;20116;-84
2021/11/13 11:38:46;;;;;;;194.45;27.92;;;13.20;86.40;;;;;;5015587;28;20026;-84
2021/11/13 11:48:07;;;;;;;172.52;32.55;;;13.10;87.80;;;;;;5002588;28;20045;-85
2021/11/13 11:55:29;;;;;;;158.15;30.35;;;13.30;89.20;;;;;;4937182;29;20119;-85
2021/11/13 11:58:09;;;;;;;155.68;27.45;;;13.40;89.90;;;;;;4962785;28;20103;-85
2021/11/13 12:00:45;;;;;;;152.98;26.20;;;13.50;90.20;;;;;;4999275;28;20046;-85
2021/11/13 12:03:49;;;;;;;129.57;25.45;;;13.60;90.40;;;;;;4998196;28;20319;-84
2021/11/13 12:06:14;;;;;;;144.48;24.52;;;13.70;90.50;;;;;;4941233;28;20122;-85
2021/11/13 12:08:40;;;;;;;138.52;26.73;;;13.70;90.90;;;;;;4998327;28;20517;-87
2021/11/13 12:11:26;;;;;;;126.85;24.35;;;14.30;90.90;;;;;;4998509;28;20468;-87
2021/11/13 12:13:54;;;;;;;119.78;24.42;;;14.10;90.90;;;;;;4998553;28;20026;-86
2021/11/13 12:16:27;;;;;;;126.45;23.95;;;13.90;91.30;;;;;;4997731;28;20062;-84
2021/11/13 12:19:15;;;;;;;118.88;23.35;;;14.00;91.00;;;;;;4998047;28;20030;-86
2021/11/13 12:21:53;;;;;;;112.18;22.92;;;13.90;91.20;;;;;;4998623;28;20029;-85
2021/11/13 12:24:24;;;;;;;121.18;21.95;;;13.80;91.30;;;;;;4998385;28;20025;-86
2021/11/13 12:27:03;;;;;;;98.78;20.35;;;14.10;91.30;;;;;;4996526;28;20022;-88
2021/11/13 12:29:55;;;;;;;82.35;19.17;;;14.00;91.50;;;;;;4995622;28;20057;-85
2021/11/13 12:32:40;;;;;;;78.88;19.55;;;13.90;91.00;;;;;;4994437;28;20033;-85
2021/11/13 12:35:13;;;;;;;73.43;18.67;;;14.00;91.50;;;;;;4994243;28;20033;-84
2021/11/13 12:37:56;;;;;;;68.68;18.40;;;14.10;91.40;;;;;;4995538;28;20521;-86
2021/11/13 12:41:04;;;;;;;72.63;17.40;;;14.40;91.60;;;;;;4996333;28;20026;-84
2021/11/13 12:43:50;;;;;;;53.13;16.23;;;14.50;91.30;;;;;;4997018;28;20029;-85
2021/11/13 12:46:40;;;;;;;64.75;16.67;;;14.10;91.30;;;;;;4995206;28;20059;-86
2021/11/13 12:49:50;;;;;;;68.32;18.20;;;14.10;90.90;;;;;;4995364;28;20034;-88
2021/11/13 12:52:21;;;;;;;76.32;18.00;;;14.10;91.10;;;;;;4995252;28;20037;-88
2021/11/13 12:54:49;;;;;;;66.97;17.83;;;14.10;91.70;;;;;;4996113;28;20037;-84
2021/11/13 12:57:23;;;;;;;77.53;18.88;;;14.10;92.20;;;;;;4991690;28;20061;-86
2021/11/13 13:00:14;;;;;;;74.68;19.73;;;14.00;92.50;;;;;;4989859;28;20026;-86
2021/11/13 13:02:40;;;;;;;;;;;14.00;92.50;;;;;;4973266;28;20290;-83
2021/11/13 13:05:11;;;;;;;68.45;20.70;;;14.00;92.70;;;;;;4971607;28;19916;-85
2021/11/13 13:07:37;;;;;;;86.45;23.50;;;13.90;92.70;;;;;;4973249;28;20026;-86
2021/11/13 13:10:10;;;;;;;75.28;24.38;;;13.90;92.40;;;;;;4971660;28;20059;-85
2021/11/13 13:12:38;;;;;;;66.32;23.20;;;13.90;92.50;;;;;;4972347;28;20488;-86
2021/11/13 13:15:13;;;;;;;79.50;23.20;;;13.90;92.40;;;;;;4971794;28;20116;-87
2021/11/13 13:17:50;;;;;;;71.30;23.23;;;13.90;91.60;;;;;;4972100;28;20578;-87
2021/11/13 13:20:24;;;;;;;76.15;24.05;;;13.90;91.30;;;;;;4974097;28;20089;-86
2021/11/13 13:22:50;;;;;;;69.75;23.05;;;13.90;90.90;;;;;;4980201;28;20474;-85
2021/11/13 13:25:16;;;;;;;73.32;21.73;;;13.90;90.70;;;;;;4992284;28;20302;-85
2021/11/13 13:27:42;;;;;;;128.20;27.52;;;13.90;90.30;;;;;;4993108;28;20057;-86
2021/11/13 13:30:12;;;;;;;208.68;32.00;;;13.80;90.10;;;;;;4990386;28;20018;-83
2021/11/13 13:32:39;;;;;;;224.95;32.90;;;13.90;90.10;;;;;;4993603;28;20132;-87
2021/11/13 13:35:13;;;;;;;362.02;40.70;;;13.80;90.00;;;;;;4993437;28;20770;-87
2021/11/13 13:37:51;;;;;;;400.98;45.17;;;13.80;89.70;;;;;;4993105;28;20578;-85
2021/11/13 13:40:27;;;;;;;396.80;46.55;;;13.80;89.70;;;;;;4993545;28;20487;-84
2021/11/13 13:42:55;;;;;;;444.73;48.00;;;13.80;89.70;;;;;;4992696;28;20029;-84
2021/11/13 13:45:23;;;;;;;439.88;50.67;;;13.90;89.40;;;;;;4992338;28;20069;-89
2021/11/13 13:47:52;;;;;;;464.80;50.65;;;13.90;89.30;;;;;;4992684;28;20065;-85
2021/11/13 13:50:18;;;;;;;472.60;52.25;;;13.90;89.00;;;;;;4993153;28;20033;-85
2021/11/13 13:52:46;;;;;;;485.73;52.55;;;13.90;88.80;;;;;;4989988;28;20120;-80
2021/11/13 13:55:18;;;;;;;493.13;51.65;;;13.90;88.60;;;;;;4992609;28;20117;-85
2021/11/13 13:58:07;;;;;;;443.13;48.97;;;13.90;88.50;;;;;;5010236;28;20034;-85
2021/11/13 14:00:33;;;;;;;441.65;47.40;;;13.90;88.70;;;;;;5010470;28;20108;-84
2021/11/13 14:02:59;;;;;;;434.50;47.85;;;13.90;88.60;;;;;;4992571;28;20507;-83
2021/11/13 14:05:31;;;;;;;398.25;43.55;;;13.90;88.80;;;;;;4992506;28;20026;-85
2021/11/13 14:08:09;;;;;;;355.10;40.92;;;13.90;88.10;;;;;;4993072;28;20049;-84
2021/11/13 14:11:01;;;;;;;348.80;40.08;;;14.00;88.40;;;;;;4991906;28;20503;-84
2021/11/13 14:13:36;;;;;;;320.75;36.25;;;14.00;88.00;;;;;;4989802;28;20041;-86
2021/11/13 14:16:03;;;;;;;302.25;36.40;;;14.10;87.90;;;;;;4993402;28;20116;-84
2021/11/13 14:18:34;;;;;;;266.73;31.42;;;14.10;87.50;;;;;;4994629;28;20036;-84
2021/11/13 14:21:00;;;;;;;;;;;14.30;87.10;;;;;;4992931;28;20164;-82
2021/11/13 14:23:31;;;;;;;235.57;31.65;;;14.20;87.10;;;;;;5009659;28;20015;-83
2021/11/13 14:26:21;;;;;;;237.82;29.48;;;14.20;87.10;;;;;;4992351;28;20113;-85
2021/11/13 14:28:50;;;;;;;248.17;30.13;;;14.10;87.10;;;;;;4992264;28;20026;-84
2021/11/13 14:31:21;;;;;;;196.80;27.27;;;14.10;87.20;;;;;;4992299;28;20268;-82
2021/11/13 14:33:56;;;;;;;191.68;25.13;;;14.00;87.20;;;;;;4992155;28;20057;-81
2021/11/13 14:36:26;;;;;;;187.70;24.92;;;14.00;87.30;;;;;;4992104;28;20399;-83
2021/11/13 14:39:06;;;;;;;177.38;25.33;;;14.00;87.00;;;;;;4992395;28;20026;-82
2021/11/13 14:41:33;;;;;;;148.75;22.95;;;13.90;86.90;;;;;;4992212;28;20037;-85
2021/11/13 14:44:12;;;;;;;154.30;23.20;;;13.90;86.90;;;;;;4991907;28;20029;-84
2021/11/13 14:46:50;;;;;;;129.50;21.05;;;13.90;86.80;;;;;;4993579;28;20037;-84
2021/11/13 14:49:19;;;;;;;135.65;21.00;;;13.90;86.80;;;;;;4991896;28;20503;-83
2021/11/13 14:51:45;;;;;;;117.35;19.13;;;13.80;86.80;;;;;;4992371;28;20545;-83
2021/11/13 14:54:12;;;;;;;96.78;18.45;;;13.80;86.70;;;;;;4992769;28;20029;-82
2021/11/13 14:56:38;;;;;;;99.70;17.30;;;13.80;86.60;;;;;;4992180;28;20563;-83
2021/11/13 14:59:22;;;;;;;88.53;16.38;;;13.80;86.40;;;;;;4992343;28;20034;-82
2021/11/13 15:01:50;;;;;;;82.60;17.05;;;13.80;86.50;;;;;;4991809;28;20037;-82
2021/11/13 15:04:30;;;;;;;83.82;16.17;;;13.80;86.30;;;;;;4991702;28;20037;-84
2021/11/13 15:06:59;;;;;;;76.25;14.45;;;13.70;86.30;;;;;;5002627;28;20399;-83
2021/11/13 15:09:26;;;;;;;73.25;15.48;;;13.70;86.20;;;;;;4991592;28;20415;-82
2021/11/13 15:11:52;;;;;;;72.78;15.68;;;13.70;86.30;;;;;;5009834;28;20064;-84
2021/11/13 15:14:26;;;;;;;61.25;14.57;;;13.70;86.20;;;;;;4991640;28;20550;-84
2021/11/13 15:16:53;;;;;;;68.97;15.05;;;13.70;86.20;;;;;;4991653;28;20030;-83
2021/11/13 15:19:19;;;;;;;66.00;14.05;;;13.70;86.10;;;;;;5009379;28;20041;-83
2021/11/13 15:21:50;;;;;;;63.25;14.18;;;13.70;86.00;;;;;;4994537;28;20026;-86
2021/11/13 15:24:23;;;;;;;50.87;14.27;;;13.60;86.10;;;;;;4995375;28;20032;-83
2021/11/13 15:26:50;;;;;;;52.13;12.75;;;13.60;86.10;;;;;;4995240;28;20686;-82
2021/11/13 15:29:20;;;;;;;44.03;11.82;;;13.60;85.90;;;;;;4995721;28;20121;-83
2021/11/13 15:31:50;;;;;;;42.70;11.30;;;13.60;85.90;;;;;;4995658;28;20018;-83
2021/11/13 15:34:37;;;;;;;46.70;11.05;;;13.60;85.70;;;;;;4995455;28;20064;-83
2021/11/13 15:37:04;;;;;;;39.47;11.07;;;13.60;85.50;;;;;;4995237;28;20406;-83
2021/11/13 15:39:30;;;;;;;35.70;10.60;;;13.70;85.20;;;;;;4995317;28;20029;-84
2021/11/13 15:42:21;;;;;;;35.78;10.23;;;13.70;85.00;;;;;;4995975;28;20045;-82
2021/11/13 15:44:48;;;;;;;;;;;13.70;84.90;;;;;;4995937;28;20531;-81
2021/11/13 15:47:15;;;;;;;35.97;9.75;;;13.80;83.00;;;;;;5012743;28;19913;-81
2021/11/13 15:49:41;;;;;;;27.25;8.40;;;13.80;82.40;;;;;;5013756;28;20030;-80
2021/11/13 15:52:06;;;;;;;22.38;8.93;;;13.80;82.20;;;;;;4995821;28;20072;-81
2021/11/13 15:54:32;;;;;;;21.88;8.52;;;13.70;82.70;;;;;;4995735;28;20073;-82
2021/11/13 15:56:57;;;;;;;19.92;7.95;;;13.70;82.30;;;;;;4995746;28;20026;-82
2021/11/13 15:59:23;;;;;;;15.90;8.35;;;13.70;82.80;;;;;;4995729;28;20034;-81
2021/11/13 16:01:52;;;;;;;18.48;7.28;;;13.60;81.80;;;;;;4995509;28;20030;-85
2021/11/13 16:04:18;;;;;;;10.93;7.15;;;13.60;82.20;;;;;;4995169;28;20594;-84
2021/11/13 16:06:46;;;;;;;14.63;7.20;;;13.60;81.70;;;;;;4994914;28;20030;-83
2021/11/13 16:09:16;;;;;;;14.68;7.35;;;13.50;81.70;;;;;;4995024;28;20041;-82
2021/11/13 16:11:43;;;;;;;18.63;7.78;;;13.50;80.80;;;;;;4994681;28;20022;-81
2021/11/13 16:14:10;;;;;;;23.10;8.73;;;13.40;80.50;;;;;;4995578;28;20022;-82
2021/11/13 16:16:37;;;;;;;27.75;8.23;;;13.30;80.70;;;;;;4995077;28;20034;-81
2021/11/13 16:19:03;;;;;;;25.85;9.15;;;13.20;81.00;;;;;;4995453;28;20057;-83
2021/11/13 16:21:29;;;;;;;19.52;7.80;;;13.20;81.60;;;;;;5012823;28;20036;-83
2021/11/13 16:23:56;;;;;;;20.15;7.68;;;13.10;81.70;;;;;;4994855;28;20407;-81
2021/11/13 16:26:22;;;;;;;16.83;7.18;;;13.10;81.90;;;;;;4995086;28;20052;-81
2021/11/13 16:28:48;;;;;;;14.00;7.57;;;13.10;82.30;;;;;;5012517;28;20032;-81
2021/11/13 16:31:13;;;;;;;14.90;7.97;;;13.00;82.30;;;;;;4995131;28;20411;-83
2021/11/13 16:33:39;;;;;;;18.42;8.70;;;13.00;82.50;;;;;;4994105;28;20033;-83
2021/11/13 16:36:05;;;;;;;17.58;9.32;;;13.00;82.70;;;;;;4994602;28;20057;-82
2021/11/13 16:38:32;;;;;;;14.73;8.75;;;12.90;82.80;;;;;;4994560;28;20061;-82